Mortons Gap, Kentucky
Current Conditions -  °F | °C
As of 6:35 PM on Monday 24 Nov 2014 (Local Time) from K2I0 Reporting Station
Broken Clouds Broken Clouds  
Wind Chill: 43°   Ceiling: 6500
Heat Index: 47°   Visibility: 10mi
Dew Point: 33°   Wind: 7mph
Humidity: 60%   Direction: 220°SW
Pressure: 29.94"   Gusts: NA
Location:  37.24°N, 87.48°W
Report Text: K2I0 250035Z AUTO 22006KT 10SM BKN065 08/01 A2994 RMK AO2 T00810008
Loading
Personal Weather Stations






























Interactive Weather Map New forecast layout! Learn more

10-Day Weather Forecast

Advertisements
Track Severe Weather on mobile